PADL Airport (Dillingham) Information

FAA: DLG - ICAO: PADL

PADL Airport Location

State Alaska
County Dillingham
City Dillingham
PADL Airport is 2 miles west of Dillingham, AK.
Latitude 59-02-40.8000N
Longitude 158-30-19.8000W
Elevation 82ft

PADL Airport METARs

METAR PADL 071856Z 24006KT 10SM CLR M10/M11 A2985 RMK AO2 SLP112 T11001111
Altimeter 29.85"
Temperature -10.0°C (14.0°F)
Wind 240° at 6KT
Clouds Skies are clear.
Visibility 10.0mi
Time observed: 2022-12-07T18:56:00Z

PADL Airport Details

Status Operational
Activation November 1950
Ownership Public
Usage Public
Chart KODIAK
ATC on-site No
Beacon schedule sunset-sunrise
Beacon color clear green

PADL Airport Contacts

Owner ALASKA DOT&PF CENTRAL REGION
Owner address P O BOX 196900, ANCHORAGE, AK 99519-6900
Owner phone 907-269-0749
Manager ROBERT MATTSON
Manager address BOX 598, CORDOVA, AK 99574
Manager phone 907-424-3202

PADL Airport (Dillingham) Radio Frequencies

PADL (Airport) Radio Frequencies

UNICOM N/A
Common traffic advisory frequency (CTAF) 123.6